Time;durP1;ratioP1;P1;durP2;ratioP2;P2;SDS_P1;SDS_P2;PMS_P1;PMS_P2;Temp;Humidity;BMP_temperature;BMP_pressure;BME280_temperature;BME280_humidity;BME280_pressure;Samples;Min_cycle;Max_cycle;Signal;HPM_P1;HPM_P2
2022/03/26 05:22:33;;;;;;;33.80;16.23;;;;;;;4.84;63.88;101410.94;5088871;28;20114;-74
2022/03/26 05:24:59;;;;;;;41.90;19.02;;;;;;;4.87;64.29;101420.41;5089263;28;20554;-75
2022/03/26 05:27:25;;;;;;;38.50;18.05;;;;;;;4.85;67.27;101424.97;5089288;28;20097;-74
2022/03/26 05:29:50;;;;;;;38.50;18.15;;;;;;;4.84;64.47;101431.22;5089187;28;20400;-74
2022/03/26 05:32:16;;;;;;;32.47;16.95;;;;;;;4.79;64.59;101436.81;5088678;28;20040;-75
2022/03/26 05:34:44;;;;;;;33.05;17.52;;;;;;;4.84;64.44;101432.06;5071153;28;20036;-74
2022/03/26 05:37:10;;;;;;;31.92;15.85;;;;;;;4.77;63.92;101425.50;5093684;22;20063;-76
2022/03/26 05:39:36;;;;;;;29.70;15.23;;;;;;;4.84;64.20;101424.13;5071592;28;20416;-75
2022/03/26 05:42:01;;;;;;;34.90;17.48;;;;;;;4.85;63.79;101432.91;5050734;28;20028;-76
2022/03/26 05:44:27;;;;;;;32.50;16.88;;;;;;;4.82;63.93;101433.09;5068648;28;20439;-76
2022/03/26 05:46:53;;;;;;;38.97;17.98;;;;;;;4.80;64.61;101437.66;5068733;28;20457;-76
2022/03/26 05:49:19;;;;;;;32.88;17.05;;;;;;;4.83;64.96;101445.38;5050879;28;20064;-76
2022/03/26 05:51:45;;;;;;;37.35;17.65;;;;;;;4.83;65.44;101440.09;5068252;28;20036;-76
2022/03/26 05:54:12;;;;;;;33.85;17.88;;;;;;;4.82;64.04;101444.50;5068728;28;20115;-76
2022/03/26 05:56:38;;;;;;;36.95;18.52;;;;;;;4.87;64.62;101449.47;5068700;28;20041;-76
2022/03/26 05:59:06;;;;;;;31.77;16.70;;;;;;;4.97;63.66;101449.69;5067729;28;20037;-77
2022/03/26 06:01:32;;;;;;;32.45;17.60;;;;;;;5.02;63.67;101451.03;5067950;28;20033;-77
2022/03/26 06:03:57;;;;;;;37.42;16.58;;;;;;;5.01;64.31;101449.34;5068776;28;20060;-76
2022/03/26 06:06:23;;;;;;;34.40;17.70;;;;;;;5.15;63.30;101458.91;5068325;28;20303;-76
2022/03/26 06:08:49;;;;;;;32.78;16.65;;;;;;;5.23;63.04;101461.88;5066730;28;20044;-76
2022/03/26 06:11:15;;;;;;;34.10;17.17;;;;;;;5.21;62.98;101470.84;5064867;28;20547;-76
2022/03/26 06:13:40;;;;;;;34.65;17.17;;;;;;;5.37;63.03;101480.22;5066059;28;20067;-76
2022/03/26 06:16:06;;;;;;;31.90;15.73;;;;;;;5.46;61.77;101476.06;5067754;28;20072;-76
2022/03/26 06:18:32;;;;;;;30.17;16.27;;;;;;;5.56;61.77;101486.84;5066379;28;20036;-75
2022/03/26 06:20:57;;;;;;;29.52;15.02;;;;;;;5.66;60.89;101493.13;5067962;28;20250;-75
2022/03/26 06:23:23;;;;;;;31.63;15.95;;;;;;;5.70;62.10;101497.25;5050151;28;20382;-76
2022/03/26 06:25:49;;;;;;;27.70;14.63;;;;;;;5.79;60.57;101503.66;5067965;28;20504;-76
2022/03/26 06:28:19;;;;;;;25.80;15.07;;;;;;;5.85;60.58;101500.56;5066831;28;20072;-76
2022/03/26 06:30:48;;;;;;;30.48;16.02;;;;;;;5.88;60.11;101510.94;5068953;28;20039;-78
2022/03/26 06:33:15;;;;;;;32.03;14.90;;;;;;;6.01;59.87;101508.28;5060061;28;20033;-77
2022/03/26 06:35:44;;;;;;;31.20;15.55;;;;;;;6.04;59.09;101506.22;5055273;28;20040;-78
2022/03/26 06:38:10;;;;;;;31.75;15.05;;;;;;;6.15;59.59;101498.34;5055430;28;20460;-77
2022/03/26 06:40:37;;;;;;;32.55;16.15;;;;;;;6.35;58.40;101506.59;5054666;28;20114;-76
2022/03/26 06:43:04;;;;;;;28.60;16.08;;;;;;;6.55;58.44;101513.88;5054191;28;20051;-75
2022/03/26 06:45:30;;;;;;;31.00;15.32;;;;;;;6.66;57.45;101500.69;5054056;28;20036;-72
2022/03/26 06:47:56;;;;;;;29.42;15.15;;;;;;;6.60;57.71;101508.25;5053743;28;20041;-72
2022/03/26 06:50:21;;;;;;;32.53;16.85;;;;;;;6.89;56.57;101508.63;5053598;28;20390;-73
2022/03/26 06:52:47;;;;;;;30.35;15.75;;;;;;;6.95;56.76;101508.16;5052196;28;20505;-72
2022/03/26 06:55:12;;;;;;;29.58;14.90;;;;;;;7.18;55.19;101501.09;5053715;28;20119;-71
2022/03/26 06:57:38;;;;;;;32.13;16.90;;;;;;;7.36;55.93;101512.84;5053458;28;20037;-75
2022/03/26 07:00:05;;;;;;;29.10;16.55;;;;;;;7.54;55.14;101510.56;5052424;28;20391;-73
2022/03/26 07:02:31;;;;;;;32.58;16.25;;;;;;;7.70;54.85;101508.38;5053615;28;20029;-73
2022/03/26 07:04:57;;;;;;;26.27;15.30;;;;;;;7.61;54.27;101503.78;5035647;28;20044;-72
2022/03/26 07:07:23;;;;;;;30.92;15.32;;;;;;;7.72;53.54;101508.25;5053401;28;20385;-74
2022/03/26 07:09:48;;;;;;;25.77;15.60;;;;;;;7.92;53.67;101511.94;5053416;28;20036;-73
2022/03/26 07:12:14;;;;;;;35.10;16.08;;;;;;;7.92;53.22;101511.94;5051850;28;20060;-73
2022/03/26 07:14:40;;;;;;;28.85;14.38;;;;;;;7.82;52.84;101507.38;5053384;28;20090;-73
2022/03/26 07:17:05;;;;;;;30.65;16.38;;;;;;;8.00;52.90;101517.44;5052078;28;20041;-73
2022/03/26 07:19:31;;;;;;;29.25;15.13;;;;;;;8.24;51.80;101518.06;5052120;28;20048;-71
2022/03/26 07:21:57;;;;;;;30.85;16.98;;;;;;;8.43;52.82;101518.25;5051633;28;20398;-71
2022/03/26 07:24:23;;;;;;;29.83;15.80;;;;;;;8.50;51.20;101510.63;5053191;28;20121;-72
2022/03/26 07:26:48;;;;;;;29.75;15.27;;;;;;;8.64;51.21;101522.72;5053240;28;20043;-72
2022/03/26 07:29:14;;;;;;;36.83;17.33;;;;;;;8.65;51.59;101517.28;5053022;28;20079;-72
2022/03/26 07:31:39;;;;;;;30.52;14.95;;;;;;;8.78;50.07;101516.25;5052946;28;20044;-71
2022/03/26 07:34:05;;;;;;;26.38;14.88;;;;;;;8.94;49.45;101512.16;5052798;28;20040;-72
2022/03/26 07:36:32;;;;;;;26.25;14.85;;;;;;;9.05;49.99;101528.97;5052906;28;20037;-70
2022/03/26 07:38:58;;;;;;;26.90;15.18;;;;;;;9.19;49.46;101525.97;5051504;28;20098;-71
2022/03/26 07:41:24;;;;;;;24.20;14.27;;;;;;;9.32;49.06;101520.41;5052718;28;20052;-72
2022/03/26 07:43:50;;;;;;;32.38;15.43;;;;;;;9.32;48.94;101520.41;5051970;28;20071;-71
2022/03/26 07:46:18;;;;;;;24.70;13.68;;;;;;;9.48;48.29;101515.47;5052395;28;20056;-71
2022/03/26 07:48:45;;;;;;;27.88;14.55;;;;;;;9.76;47.43;101524.47;5052871;28;20064;-71
2022/03/26 07:51:11;;;;;;;26.77;14.07;;;;;;;9.45;47.78;101521.03;5051272;28;20048;-72
2022/03/26 07:53:37;;;;;;;30.35;14.75;;;;;;;9.70;47.31;101527.69;5052426;28;20052;-71
2022/03/26 07:56:02;;;;;;;27.80;15.20;;;;;;;9.73;46.79;101519.44;5052731;28;20029;-72
2022/03/26 07:58:28;;;;;;;27.73;14.32;;;;;;;9.79;46.80;101526.88;5052786;28;20064;-73
2022/03/26 08:00:54;;;;;;;25.70;14.25;;;;;;;9.79;46.99;101527.72;5053311;28;20025;-73
2022/03/26 08:03:19;;;;;;;27.95;14.10;;;;;;;10.07;46.20;101531.41;5050555;28;20411;-72
2022/03/26 08:05:45;;;;;;;31.30;15.15;;;;;;;10.02;46.52;101522.97;5052561;28;20044;-71
2022/03/26 08:08:11;;;;;;;24.88;13.95;;;;;;;10.31;45.69;101527.53;5051146;28;20033;-73
2022/03/26 08:10:36;;;;;;;27.08;15.02;;;;;;;10.43;47.12;101528.19;5051051;28;20041;-72
2022/03/26 08:13:02;;;;;;;30.52;15.07;;;;;;;10.70;45.15;101530.16;5050703;28;20060;-70
2022/03/26 08:15:27;;;;;;;26.60;14.45;;;;;;;10.91;45.04;101536.13;5052361;28;20402;-71
2022/03/26 08:17:53;;;;;;;24.63;13.88;;;;;;;10.86;44.90;101535.72;5052175;28;20514;-71
2022/03/26 08:20:19;;;;;;;27.70;14.50;;;;;;;11.04;44.45;101528.66;5050863;28;20523;-72
2022/03/26 08:22:44;;;;;;;28.65;14.23;;;;;;;11.25;44.13;101532.94;5050485;28;20114;-72
2022/03/26 08:25:10;;;;;;;25.02;14.02;;;;;;;11.35;44.40;101529.25;5052244;28;20033;-73
2022/03/26 08:27:37;;;;;;;25.77;14.85;;;;;;;11.44;44.27;101522.19;5052125;28;20041;-73
2022/03/26 08:30:04;;;;;;;23.50;14.18;;;;;;;11.63;43.64;101524.75;5050735;28;20097;-73
2022/03/26 08:32:30;;;;;;;23.50;13.85;;;;;;;11.86;43.44;101529.69;5051787;28;20037;-71
2022/03/26 08:34:56;;;;;;;24.55;13.43;;;;;;;11.98;43.85;101519.63;5052187;28;20546;-71
2022/03/26 08:37:22;;;;;;;26.15;13.48;;;;;;;12.02;43.57;101529.88;5052382;28;20045;-72
2022/03/26 08:39:47;;;;;;;28.75;14.77;;;;;;;12.16;42.47;101534.69;5050964;28;20082;-73
2022/03/26 08:42:13;;;;;;;26.33;14.52;;;;;;;12.22;42.37;101528.72;5051580;28;20037;-73
2022/03/26 08:44:39;;;;;;;26.52;14.60;;;;;;;12.37;41.95;101528.19;5051710;28;20129;-73
2022/03/26 08:47:06;;;;;;;23.90;14.63;;;;;;;12.56;41.35;101532.53;5051511;28;20041;-71
2022/03/26 08:49:32;;;;;;;26.40;14.48;;;;;;;12.72;41.66;101533.50;5051759;28;20033;-72
2022/03/26 08:51:58;;;;;;;24.48;14.07;;;;;;;12.79;42.24;101536.38;5050042;28;20449;-72
2022/03/26 08:54:24;;;;;;;25.67;14.30;;;;;;;13.08;40.77;101522.69;5051677;28;20037;-73
2022/03/26 08:56:49;;;;;;;27.15;13.70;;;;;;;13.31;42.64;101531.06;5051302;28;20037;-71
2022/03/26 08:59:15;;;;;;;25.52;14.65;;;;;;;13.56;40.18;101530.16;5051605;28;20614;-72
2022/03/26 09:01:41;;;;;;;24.55;14.52;;;;;;;13.55;39.28;101527.63;5051184;28;20025;-71
2022/03/26 09:04:06;;;;;;;28.38;15.45;;;;;;;13.77;39.02;101519.00;5051328;28;20461;-72
2022/03/26 09:06:32;;;;;;;25.92;14.25;;;;;;;14.13;38.30;101519.56;5051289;28;20490;-71
2022/03/26 09:08:59;;;;;;;30.70;15.50;;;;;;;14.29;37.50;101532.16;5051257;28;20037;-71
2022/03/26 09:11:25;;;;;;;25.83;14.25;;;;;;;14.34;37.04;101527.16;5051178;28;20047;-72
2022/03/26 09:13:51;;;;;;;31.00;15.38;;;;;;;14.46;37.39;101522.28;5051015;28;20040;-70
2022/03/26 09:16:17;;;;;;;25.13;14.73;;;;;;;14.68;36.81;101523.47;5051634;28;20037;-73
2022/03/26 09:18:42;;;;;;;25.20;15.02;;;;;;;14.72;36.90;101526.63;5049821;28;20060;-73
2022/03/26 09:21:08;;;;;;;28.15;15.48;;;;;;;14.50;37.18;101522.81;5051088;28;20064;-73
2022/03/26 09:23:34;;;;;;;25.15;14.70;;;;;;;14.30;39.29;101525.78;5049703;28;20148;-73
2022/03/26 09:26:00;;;;;;;23.58;14.98;;;;;;;14.88;37.64;101522.09;5051248;28;20107;-72
2022/03/26 09:28:26;;;;;;;27.08;15.32;;;;;;;15.01;37.19;101518.06;5051423;28;20044;-73
2022/03/26 09:30:52;;;;;;;25.95;15.10;;;;;;;15.47;36.85;101522.59;5049965;28;20459;-73
2022/03/26 09:33:17;;;;;;;25.55;15.38;;;;;;;15.79;36.09;101514.59;5051118;28;20037;-72
2022/03/26 09:35:43;;;;;;;26.85;15.82;;;;;;;15.97;34.52;101510.63;5051535;28;20029;-73
2022/03/26 09:38:09;;;;;;;27.73;16.25;;;;;;;16.27;33.54;101513.41;5049779;28;20041;-72
2022/03/26 09:40:35;;;;;;;25.30;16.60;;;;;;;16.10;34.60;101509.16;5051058;28;20047;-71
2022/03/26 09:43:01;;;;;;;26.80;15.75;;;;;;;16.25;36.35;101515.47;5050908;28;20049;-72
2022/03/26 09:45:27;;;;;;;25.50;14.88;;;;;;;16.68;34.04;101516.56;5051258;28;20066;-72
2022/03/26 09:47:54;;;;;;;26.30;15.50;;;;;;;16.75;33.25;101511.34;5050947;28;20044;-72
2022/03/26 09:50:21;;;;;;;26.13;15.47;;;;;;;17.16;32.92;101506.38;5049564;28;20033;-72
2022/03/26 09:52:48;;;;;;;30.25;15.68;;;;;;;17.08;32.62;101509.13;5050808;28;20041;-71
2022/03/26 09:55:17;;;;;;;27.92;15.23;;;;;;;17.20;32.63;101509.50;5051111;28;20117;-72
2022/03/26 09:57:42;;;;;;;27.70;16.27;;;;;;;17.70;32.50;101503.31;5049700;28;20041;-73
2022/03/26 10:00:10;;;;;;;28.70;15.40;;;;;;;18.27;31.54;101507.91;5051028;28;20032;-71
2022/03/26 10:02:38;;;;;;;30.05;17.40;;;;;;;17.97;31.11;101499.09;5050765;28;20052;-73
2022/03/26 10:05:04;;;;;;;29.38;16.02;;;;;;;18.47;31.42;101491.88;5051718;28;20033;-73
2022/03/26 10:07:31;;;;;;;27.75;17.17;;;;;;;18.69;29.49;101492.69;5054101;28;20385;-73
2022/03/26 10:09:56;;;;;;;26.55;16.58;;;;;;;19.02;29.43;101489.38;5056592;28;20041;-73
2022/03/26 10:12:27;;;;;;;27.88;16.25;;;;;;;18.60;30.77;101493.88;5056229;28;20390;-73
2022/03/26 10:15:04;;;;;;;27.63;17.52;;;;;;;19.28;29.24;101491.41;5056397;28;20371;-73
2022/03/26 10:17:35;;;;;;;25.92;16.05;;;;;;;19.18;29.21;101489.91;5055056;28;20048;-73
2022/03/26 10:20:02;;;;;;;26.45;16.88;;;;;;;19.55;28.94;101489.63;5054981;28;20067;-73
2022/03/26 10:22:32;;;;;;;32.35;18.73;;;;;;;19.15;30.12;101484.06;5054222;28;20025;-73
2022/03/26 10:25:04;;;;;;;32.03;18.35;;;;;;;19.67;28.42;101491.59;5054374;28;20397;-74
2022/03/26 10:27:43;;;;;;;27.92;17.67;;;;;;;20.12;27.67;101489.19;5054250;28;20029;-73
2022/03/26 10:30:11;;;;;;;26.42;17.13;;;;;;;20.10;27.84;101476.94;5054161;28;20044;-74
2022/03/26 10:32:49;;;;;;;25.70;16.58;;;;;;;19.76;28.48;101484.97;5053879;28;20102;-71
2022/03/26 10:35:14;;;;;;;;;;;;;;;19.84;27.49;101480.41;5054723;28;20036;-73
2022/03/26 10:37:53;;;;;;;28.02;17.27;;;;;;;20.38;26.92;101476.75;5054280;28;20031;-73
2022/03/26 10:40:35;;;;;;;25.50;17.02;;;;;;;20.90;27.06;101477.75;5054136;28;20115;-73
2022/03/26 10:43:10;;;;;;;26.35;17.92;;;;;;;21.24;25.81;101471.19;5053835;28;20037;-72
2022/03/26 10:45:50;;;;;;;28.27;18.05;;;;;;;20.95;26.14;101472.53;5054097;28;20140;-72
2022/03/26 10:48:23;;;;;;;28.42;17.25;;;;;;;21.28;25.72;101469.72;5053884;28;20037;-73
2022/03/26 10:50:58;;;;;;;25.13;16.52;;;;;;;21.55;25.51;101471.31;5053956;28;20037;-70
2022/03/26 10:53:33;;;;;;;26.65;16.50;;;;;;;21.78;25.41;101468.06;5053383;28;20033;-71
2022/03/26 10:56:01;;;;;;;27.15;17.05;;;;;;;22.28;24.45;101461.88;5053657;28;20068;-74
2022/03/26 10:58:26;;;;;;;;;;;;;;;22.28;24.58;101475.47;5052732;28;20025;-73
2022/03/26 11:00:53;;;;;;;27.63;17.48;;;;;;;22.03;24.70;101467.25;5051882;28;19981;-71
2022/03/26 11:03:19;;;;;;;28.40;17.23;;;;;;;21.83;24.78;101465.50;5052865;28;20059;-73
2022/03/26 11:05:46;;;;;;;25.63;16.80;;;;;;;21.03;26.41;101453.34;5053209;28;20287;-72
2022/03/26 11:08:14;;;;;;;29.52;17.98;;;;;;;21.18;26.25;101451.19;5053162;28;20048;-73
2022/03/26 11:10:40;;;;;;;25.40;17.38;;;;;;;21.78;25.42;101457.22;5053284;28;20413;-73
2022/03/26 11:13:11;;;;;;;27.10;17.80;;;;;;;21.79;24.96;101458.88;5051941;28;20089;-73
2022/03/26 11:15:44;;;;;;;27.10;17.73;;;;;;;21.98;24.55;101456.25;5053480;28;20040;-73
2022/03/26 11:18:28;;;;;;;26.65;17.80;;;;;;;22.32;23.93;101454.97;5053333;28;20041;-72
2022/03/26 11:21:09;;;;;;;25.77;16.63;;;;;;;22.81;23.40;101451.34;5052575;28;20029;-74
2022/03/26 11:24:02;;;;;;;30.35;18.63;;;;;;;22.79;23.17;101453.47;5053032;28;20460;-73
2022/03/26 11:26:36;;;;;;;27.17;17.23;;;;;;;22.97;23.37;101456.25;5053266;28;20029;-73
2022/03/26 11:29:37;;;;;;;26.02;17.60;;;;;;;23.17;22.89;101441.59;5051844;28;20100;-73
2022/03/26 11:32:11;;;;;;;29.23;19.17;;;;;;;23.50;22.39;101442.00;5049661;28;20045;-73
2022/03/26 11:34:37;;;;;;;26.92;17.42;;;;;;;22.90;23.42;101446.50;5053301;28;20061;-74
2022/03/26 11:37:20;;;;;;;26.33;16.83;;;;;;;23.10;23.00;101428.09;5070862;22;20045;-72
2022/03/26 11:39:48;;;;;;;24.25;17.58;;;;;;;23.24;23.08;101437.72;5032964;28;20041;-74
2022/03/26 11:42:15;;;;;;;28.33;17.15;;;;;;;23.22;22.11;101425.44;5032468;28;20068;-72
2022/03/26 11:44:45;;;;;;;25.83;16.50;;;;;;;23.99;21.57;101426.44;5032840;28;20167;-72
2022/03/26 11:53:09;;;;;;;25.00;16.00;;;;;;;24.55;20.52;101425.09;5032495;28;20030;-73
2022/03/26 11:55:46;;;;;;;23.90;17.33;;;;;;;24.61;20.48;101421.44;5032704;28;20708;-72
2022/03/26 11:58:17;;;;;;;26.73;18.27;;;;;;;24.45;21.22;101410.41;5032565;28;20185;-72
2022/03/26 12:01:04;;;;;;;24.65;16.83;;;;;;;23.97;21.57;101416.84;5032716;28;20087;-72
2022/03/26 12:03:40;;;;;;;23.10;15.82;;;;;;;24.41;21.12;101412.78;5032459;28;20128;-72
2022/03/26 12:08:54;;;;;;;24.65;16.95;;;;;;;24.61;20.17;101404.25;5017541;28;20041;-72
2022/03/26 12:11:41;;;;;;;23.48;16.17;;;;;;;25.34;19.72;101411.81;5032425;28;20029;-72
2022/03/26 12:14:08;;;;;;;19.20;14.82;;;;;;;24.54;20.17;101401.66;5001415;28;20128;-72
2022/03/26 12:17:00;;;;;;;22.33;15.77;;;;;;;23.68;21.09;101391.38;5032341;28;20183;-72
2022/03/26 12:19:50;;;;;;;21.08;15.75;;;;;;;24.56;20.54;101391.34;5028290;28;20407;-72
2022/03/26 12:22:28;;;;;;;24.02;14.88;;;;;;;23.72;20.69;101384.38;5031931;28;20087;-71
2022/03/26 12:25:00;;;;;;;19.13;13.50;;;;;;;24.20;20.22;101395.13;5014538;28;20051;-71
2022/03/26 12:27:26;;;;;;;20.63;14.95;;;;;;;24.15;19.99;101388.72;5032035;28;20046;-71
2022/03/26 12:29:57;;;;;;;20.80;14.07;;;;;;;23.99;19.75;101391.06;5015099;28;20040;-71
2022/03/26 12:32:33;;;;;;;20.60;14.63;;;;;;;24.29;19.35;101381.97;5032417;28;20479;-71
2022/03/26 12:35:05;;;;;;;22.25;13.68;;;;;;;24.76;19.56;101390.13;5014417;28;20034;-72
2022/03/26 12:37:32;;;;;;;19.15;14.65;;;;;;;24.50;19.60;101381.41;5031970;28;20116;-71
2022/03/26 12:39:58;;;;;;;23.70;13.90;;;;;;;24.29;19.59;101371.09;5031783;28;20060;-72
2022/03/26 12:42:25;;;;;;;20.40;13.88;;;;;;;24.20;20.22;101370.63;5013784;28;20500;-72
2022/03/26 12:44:52;;;;;;;22.80;14.20;;;;;;;24.82;19.92;101364.66;5014212;28;20083;-72
2022/03/26 12:47:24;;;;;;;17.97;12.13;;;;;;;24.55;18.84;101373.34;5014079;28;20686;-71
2022/03/26 12:49:51;;;;;;;17.77;13.18;;;;;;;24.73;18.66;101363.38;5014126;28;20156;-71
2022/03/26 12:52:18;;;;;;;19.92;13.80;;;;;;;24.40;18.96;101353.97;5031470;28;20120;-72
2022/03/26 12:54:44;;;;;;;;;;;;;;;25.14;18.27;101360.44;5014697;28;20076;-73
2022/03/26 12:57:10;;;;;;;19.27;13.23;;;;;;;24.44;18.21;101357.84;5031952;28;19924;-77
2022/03/26 12:59:36;;;;;;;20.23;13.82;;;;;;;23.33;19.08;101356.69;5013989;28;20037;-76
2022/03/26 13:02:02;;;;;;;20.30;14.02;;;;;;;24.24;18.81;101357.34;4997528;28;20141;-76
2022/03/26 13:04:28;;;;;;;19.38;12.48;;;;;;;24.26;18.29;101353.34;5015594;28;20045;-77
2022/03/26 13:06:57;;;;;;;19.92;12.57;;;;;;;25.23;16.91;101354.59;5015109;28;20045;-72
2022/03/26 13:09:30;;;;;;;18.83;13.70;;;;;;;24.54;17.68;101347.19;5031857;28;20033;-71
2022/03/26 13:11:56;;;;;;;17.08;11.55;;;;;;;24.66;17.62;101349.06;5031651;28;20380;-71
2022/03/26 13:14:22;;;;;;;18.83;13.18;;;;;;;24.98;17.21;101353.03;5031715;28;20049;-71
2022/03/26 13:16:52;;;;;;;16.77;12.10;;;;;;;23.44;17.66;101342.31;5031752;28;20079;-71
2022/03/26 13:19:18;;;;;;;18.58;12.10;;;;;;;24.30;17.23;101350.97;5031514;28;20052;-71
2022/03/26 13:21:48;;;;;;;17.27;11.52;;;;;;;24.60;17.08;101335.34;5031040;28;20037;-71
2022/03/26 13:24:17;;;;;;;16.52;11.15;;;;;;;23.99;18.08;101333.91;5031495;28;20530;-71
2022/03/26 13:26:53;;;;;;;14.95;10.88;;;;;;;23.79;17.86;101344.31;5031451;28;20040;-71
2022/03/26 13:29:30;;;;;;;17.83;11.82;;;;;;;23.91;17.65;101336.16;5013773;28;20048;-71
2022/03/26 13:32:04;;;;;;;19.00;12.63;;;;;;;23.73;17.60;101328.94;5031284;28;20034;-72
2022/03/26 13:34:34;;;;;;;17.57;12.37;;;;;;;23.99;17.36;101333.91;5031290;28;20040;-71
2022/03/26 13:37:10;;;;;;;;;;;;;;;24.12;18.43;101326.59;5031559;28;20644;-71
2022/03/26 13:39:38;;;;;;;15.40;11.05;;;;;;;25.02;17.26;101324.19;5031282;28;19913;-71
2022/03/26 13:42:15;;;;;;;15.88;12.10;;;;;;;25.07;16.15;101329.78;5030934;28;20034;-71
2022/03/26 13:44:42;;;;;;;15.55;10.50;;;;;;;24.87;16.11;101329.34;5017423;28;20038;-70
2022/03/26 13:47:22;;;;;;;13.35;10.52;;;;;;;25.11;16.55;101320.06;5035093;28;20080;-71
2022/03/26 13:50:12;;;;;;;14.82;10.80;;;;;;;25.02;16.62;101329.63;5035078;28;20398;-71
2022/03/26 13:52:41;;;;;;;17.38;10.82;;;;;;;23.91;17.65;101312.50;5016952;28;20560;-71
2022/03/26 13:55:26;;;;;;;17.20;11.82;;;;;;;24.34;17.31;101312.19;5034965;28;20038;-71
2022/03/26 13:57:54;;;;;;;15.85;10.65;;;;;;;24.42;17.21;101321.03;5034910;28;20512;-71
2022/03/26 14:00:22;;;;;;;16.25;10.98;;;;;;;22.95;18.29;101295.38;5034826;28;20041;-71
2022/03/26 14:02:51;;;;;;;16.42;12.02;;;;;;;23.97;17.20;101305.31;5034538;28;20120;-71
2022/03/26 14:05:28;;;;;;;14.85;10.90;;;;;;;24.44;16.99;101303.38;5034941;28;20049;-71
2022/03/26 14:08:02;;;;;;;;;;;;;;;24.27;17.70;101302.47;5035191;28;20095;-70
2022/03/26 14:10:40;;;;;;;18.60;11.98;;;;;;;23.41;18.70;101303.88;5034739;28;19940;-70
2022/03/26 14:13:07;;;;;;;15.95;10.88;;;;;;;22.88;18.95;101300.03;5034512;28;20044;-70
2022/03/26 14:15:34;;;;;;;15.85;10.98;;;;;;;23.20;18.75;101299.81;5034677;28;20045;-73
2022/03/26 14:18:00;;;;;;;15.52;11.10;;;;;;;22.53;18.92;101286.25;5034498;28;20083;-71
2022/03/26 14:20:27;;;;;;;16.52;10.43;;;;;;;22.49;18.94;101290.47;5034575;28;20033;-73
2022/03/26 14:22:56;;;;;;;15.05;11.07;;;;;;;21.75;19.83;101288.69;5034374;28;20124;-70
2022/03/26 14:25:29;;;;;;;18.10;11.55;;;;;;;21.63;19.74;101292.13;5034410;28;20037;-72
2022/03/26 14:27:58;;;;;;;18.02;10.60;;;;;;;21.31;19.58;101294.00;5034447;28;20060;-72
2022/03/26 14:30:24;;;;;;;13.95;9.82;;;;;;;21.27;19.94;101289.25;5016645;28;20033;-71
2022/03/26 14:32:50;;;;;;;15.60;10.65;;;;;;;20.88;20.69;101290.31;5033898;28;20048;-72
2022/03/26 14:35:16;;;;;;;20.13;12.00;;;;;;;20.59;21.05;101287.91;5034426;28;20049;-71
2022/03/26 14:37:41;;;;;;;19.63;10.38;;;;;;;20.29;21.43;101268.63;5033999;28;20066;-72
2022/03/26 14:40:08;;;;;;;14.57;10.15;;;;;;;20.21;21.35;101277.00;5034028;28;20080;-71
2022/03/26 14:42:35;;;;;;;16.88;10.75;;;;;;;20.28;22.15;101276.97;5033553;28;20057;-72
2022/03/26 14:45:01;;;;;;;16.75;10.93;;;;;;;19.57;23.01;101269.53;5016094;28;20121;-71
2022/03/26 14:47:27;;;;;;;16.27;10.77;;;;;;;19.26;23.22;101272.81;5034066;28;20364;-71
2022/03/26 14:49:52;;;;;;;17.85;10.55;;;;;;;19.67;23.01;101269.97;5033931;28;20037;-71
2022/03/26 14:52:18;;;;;;;20.60;11.73;;;;;;;19.56;22.27;101275.13;5033941;28;20395;-71
2022/03/26 14:54:44;;;;;;;17.85;11.32;;;;;;;19.16;23.57;101269.69;5033680;28;20045;-71
2022/03/26 14:57:09;;;;;;;19.38;12.13;;;;;;;19.24;23.11;101267.63;5034230;28;20060;-71
2022/03/26 14:59:35;;;;;;;16.52;11.50;;;;;;;19.28;23.51;101269.91;5033906;28;20114;-71
2022/03/26 15:02:00;;;;;;;17.80;11.77;;;;;;;19.37;23.06;101266.81;5033387;28;20040;-72
2022/03/26 15:04:26;;;;;;;19.08;11.15;;;;;;;19.48;22.95;101271.59;5033821;28;20045;-71
2022/03/26 15:06:52;;;;;;;17.52;10.90;;;;;;;19.56;23.05;101277.81;5033701;28;20064;-71
2022/03/26 15:09:18;;;;;;;16.67;11.40;;;;;;;19.47;22.99;101266.41;5033610;28;20080;-71
2022/03/26 15:11:43;;;;;;;15.98;11.02;;;;;;;19.02;23.00;101268.81;5033210;28;20037;-71
2022/03/26 15:14:09;;;;;;;16.65;10.88;;;;;;;19.20;23.10;101263.66;5033797;28;20033;-71
2022/03/26 15:16:35;;;;;;;16.92;11.50;;;;;;;19.30;22.99;101271.38;5033704;28;20643;-71
2022/03/26 15:19:01;;;;;;;15.88;10.07;;;;;;;19.50;22.79;101276.81;5033574;28;20386;-70
2022/03/26 15:21:27;;;;;;;18.75;11.07;;;;;;;19.11;23.01;101273.00;5033347;28;20100;-69
2022/03/26 15:23:52;;;;;;;17.48;10.85;;;;;;;19.14;22.41;101277.16;5033070;28;20142;-71
2022/03/26 15:26:18;;;;;;;17.85;11.57;;;;;;;18.95;22.99;101274.19;5033221;28;20677;-70
2022/03/26 15:28:44;;;;;;;17.77;10.13;;;;;;;19.06;22.63;101272.78;5033176;28;20235;-71
2022/03/26 15:31:09;;;;;;;17.98;10.30;;;;;;;19.10;22.45;101271.31;5015567;28;20064;-70
2022/03/26 15:33:35;;;;;;;18.20;10.27;;;;;;;19.08;22.23;101270.72;5032849;28;20030;-71
2022/03/26 15:36:01;;;;;;;17.95;10.63;;;;;;;18.97;22.91;101274.00;5033108;28;20033;-71
2022/03/26 15:38:27;;;;;;;18.38;10.82;;;;;;;18.79;22.60;101266.47;5032935;28;20041;-70
2022/03/26 15:40:53;;;;;;;15.82;10.90;;;;;;;18.74;23.03;101260.03;5032962;28;20680;-70
2022/03/26 15:43:18;;;;;;;19.92;12.73;;;;;;;18.79;23.11;101260.25;5032540;28;20033;-70
2022/03/26 15:45:44;;;;;;;22.00;12.98;;;;;;;18.83;23.07;101269.59;5015337;28;20482;-70
2022/03/26 15:48:10;;;;;;;16.65;10.32;;;;;;;18.92;22.52;101263.81;5032942;28;20047;-70
2022/03/26 15:50:36;;;;;;;15.35;9.50;;;;;;;18.85;22.72;101264.84;5032975;28;20026;-69
2022/03/26 15:53:03;;;;;;;17.08;10.15;;;;;;;18.91;23.01;101264.88;5032445;28;20045;-73
2022/03/26 15:55:29;;;;;;;16.00;10.00;;;;;;;18.82;23.00;101260.66;5015401;28;20080;-71
2022/03/26 15:57:56;;;;;;;15.57;10.50;;;;;;;18.85;22.35;101256.75;5015364;28;20045;-71
2022/03/26 16:00:22;;;;;;;13.73;9.13;;;;;;;18.86;22.91;101263.81;5032894;28;20045;-71
2022/03/26 16:02:48;;;;;;;14.30;9.18;;;;;;;18.73;22.95;101264.59;5032468;28;20511;-71
2022/03/26 16:05:14;;;;;;;14.77;9.40;;;;;;;18.52;22.68;101264.66;5014783;28;20061;-71
2022/03/26 16:07:39;;;;;;;14.90;9.57;;;;;;;18.69;22.33;101269.56;5032985;28;20433;-71
2022/03/26 16:10:06;;;;;;;16.25;9.88;;;;;;;18.66;22.46;101261.00;5033451;28;20040;-71
2022/03/26 16:12:32;;;;;;;13.25;8.55;;;;;;;18.68;23.40;101264.34;5032838;28;20052;-71
2022/03/26 16:14:58;;;;;;;14.85;8.88;;;;;;;18.72;22.80;101270.19;5033116;28;20128;-71
2022/03/26 16:17:23;;;;;;;14.45;9.57;;;;;;;18.63;22.39;101270.31;5032705;28;20037;-71
2022/03/26 16:19:49;;;;;;;12.55;8.77;;;;;;;18.54;23.00;101276.94;5032328;28;20061;-70
2022/03/26 16:22:17;;;;;;;14.45;9.52;;;;;;;18.42;22.86;101270.44;5031871;28;20533;-71
2022/03/26 16:24:45;;;;;;;;;;;;;;;18.49;22.71;101278.56;5032696;28;20072;-71
2022/03/26 16:27:14;;;;;;;13.82;8.50;;;;;;;18.44;22.30;101271.06;5032249;28;19923;-71
2022/03/26 16:29:43;;;;;;;12.10;8.20;;;;;;;18.50;22.66;101278.34;5032174;28;20037;-71
2022/03/26 16:32:10;;;;;;;13.50;8.30;;;;;;;18.45;22.55;101270.03;5032369;28;20163;-71
2022/03/26 16:34:36;;;;;;;12.18;7.65;;;;;;;18.39;22.38;101274.38;5032935;28;20143;-77
2022/03/26 16:37:02;;;;;;;10.98;7.75;;;;;;;18.41;23.03;101284.97;5032379;28;20037;-72
2022/03/26 16:39:28;;;;;;;15.18;8.45;;;;;;;18.33;22.86;101285.13;5014592;28;20510;-71
2022/03/26 16:41:54;;;;;;;13.13;8.35;;;;;;;18.28;22.68;101279.50;5031573;28;20036;-71
2022/03/26 16:44:19;;;;;;;12.65;8.23;;;;;;;18.28;23.02;101279.50;5014605;28;20045;-72
2022/03/26 16:46:48;;;;;;;13.48;8.82;;;;;;;18.15;22.93;101277.56;5031975;28;20041;-72
2022/03/26 16:49:17;;;;;;;16.20;8.52;;;;;;;18.14;22.80;101275.91;5031902;28;20100;-71